Time;durP1;ratioP1;P1;durP2;ratioP2;P2;SDS_P1;SDS_P2;PMS_P1;PMS_P2;Temp;Humidity;BMP_temperature;BMP_pressure;BME280_temperature;BME280_humidity;BME280_pressure;Samples;Min_cycle;Max_cycle;Signal;HPM_P1;HPM_P2
2023/12/09 00:02:32;;;;;;;59.30;37.50;;;1.10;84.70;;;;;;6243177;28;20753;-80
2023/12/09 00:05:35;;;;;;;56.23;35.43;;;1.10;84.70;;;;;;6237853;28;20312;-79
2023/12/09 00:08:39;;;;;;;50.67;34.57;;;1.10;84.70;;;;;;6220962;28;20303;-81
2023/12/09 00:11:42;;;;;;;53.63;36.70;;;1.20;84.70;;;;;;6209065;28;20370;-81
2023/12/09 00:14:46;;;;;;;56.30;37.03;;;1.20;84.30;;;;;;6239444;28;20250;-81
2023/12/09 00:17:51;;;;;;;55.83;37.40;;;1.10;84.50;;;;;;6223636;28;20238;-80
2023/12/09 00:20:54;;;;;;;59.73;36.30;;;1.20;84.60;;;;;;6215692;28;20290;-81
2023/12/09 00:23:59;;;;;;;57.17;36.60;;;1.10;84.60;;;;;;6218861;28;20849;-80
2023/12/09 00:27:03;;;;;;;58.10;37.53;;;1.10;84.70;;;;;;6233129;28;20245;-81
2023/12/09 00:30:09;;;;;;;56.97;36.60;;;1.10;84.70;;;;;;6235582;28;20246;-81
2023/12/09 00:33:12;;;;;;;49.67;34.13;;;1.30;84.60;;;;;;6227113;28;20300;-79
2023/12/09 00:36:15;;;;;;;53.27;35.63;;;1.30;84.30;;;;;;6227814;28;20238;-80
2023/12/09 00:39:18;;;;;;;49.30;32.83;;;1.20;84.30;;;;;;6229011;28;20246;-81
2023/12/09 00:42:21;;;;;;;52.90;35.30;;;1.20;84.50;;;;;;6227690;28;20874;-80
2023/12/09 00:45:26;;;;;;;54.17;36.40;;;1.20;84.50;;;;;;6234445;28;20242;-80
2023/12/09 00:48:29;;;;;;;51.93;33.90;;;1.20;84.50;;;;;;6229819;28;20313;-80
2023/12/09 00:51:35;;;;;;;52.80;32.80;;;1.30;84.40;;;;;;6221710;28;20236;-80
2023/12/09 00:54:38;;;;;;;54.43;34.40;;;1.40;84.20;;;;;;6213231;28;20242;-82
2023/12/09 00:57:41;;;;;;;47.20;32.27;;;1.40;84.00;;;;;;6218662;28;20322;-79
2023/12/09 01:00:46;;;;;;;53.97;34.33;;;1.40;83.60;;;;;;6229889;28;20284;-80
2023/12/09 01:03:52;;;;;;;49.10;32.73;;;1.40;83.50;;;;;;6226398;28;20238;-80
2023/12/09 01:06:56;;;;;;;54.43;34.30;;;1.40;83.70;;;;;;6221727;28;20235;-81
2023/12/09 01:09:59;;;;;;;49.90;33.17;;;1.40;83.70;;;;;;6221853;28;20247;-79
2023/12/09 01:13:03;;;;;;;52.03;33.27;;;1.40;84.00;;;;;;6228489;28;20705;-80
2023/12/09 01:16:09;;;;;;;53.77;33.60;;;1.40;83.90;;;;;;6224272;28;20251;-79
2023/12/09 01:19:12;;;;;;;49.37;33.20;;;1.40;83.60;;;;;;6224810;28;20243;-80
2023/12/09 01:22:15;;;;;;;49.23;32.67;;;1.40;83.70;;;;;;6219625;28;20243;-82
2023/12/09 01:25:19;;;;;;;49.27;33.97;;;1.40;83.90;;;;;;6226905;28;20321;-83
2023/12/09 01:28:22;;;;;;;52.10;32.50;;;1.40;84.00;;;;;;6224487;28;20239;-82
2023/12/09 01:31:27;;;;;;;51.60;33.27;;;1.40;84.00;;;;;;6224993;28;20745;-81
2023/12/09 01:34:30;;;;;;;49.60;32.47;;;1.40;84.00;;;;;;6216119;28;20892;-81
2023/12/09 01:37:33;;;;;;;46.97;31.73;;;1.30;84.00;;;;;;6214232;28;20231;-81
2023/12/09 01:40:36;;;;;;;51.40;33.93;;;1.40;84.10;;;;;;6223565;28;20310;-79
2023/12/09 01:43:39;;;;;;;49.60;32.43;;;1.40;84.10;;;;;;6218822;28;20242;-83
2023/12/09 01:46:43;;;;;;;54.43;32.67;;;1.50;83.70;;;;;;6222934;28;20248;-79
2023/12/09 01:49:47;;;;;;;47.17;31.97;;;1.50;83.60;;;;;;6221565;28;20239;-82
2023/12/09 01:52:51;;;;;;;48.83;32.97;;;1.50;83.60;;;;;;6220964;28;20227;-79
2023/12/09 01:55:56;;;;;;;46.23;31.50;;;1.50;83.50;;;;;;6226060;28;20242;-82
2023/12/09 01:58:59;;;;;;;49.60;30.93;;;1.60;83.50;;;;;;6230574;28;20288;-82
2023/12/09 02:02:06;;;;;;;47.37;32.40;;;1.60;83.10;;;;;;6245982;28;20245;-82
2023/12/09 02:05:11;;;;;;;47.17;31.40;;;1.50;83.30;;;;;;6226656;28;20243;-81
2023/12/09 02:08:14;;;;;;;53.33;33.23;;;1.50;83.20;;;;;;6225818;28;20266;-81
2023/12/09 02:11:25;;;;;;;49.30;31.80;;;1.50;83.30;;;;;;6217162;28;20711;-80
2023/12/09 02:14:37;;;;;;;49.37;31.87;;;1.50;83.40;;;;;;6219582;28;20239;-79
2023/12/09 02:17:48;;;;;;;51.07;32.93;;;1.50;83.50;;;;;;6222559;28;20247;-79
2023/12/09 02:20:51;;;;;;;50.43;32.17;;;1.50;83.50;;;;;;6226025;28;20246;-82
2023/12/09 02:23:56;;;;;;;52.20;32.60;;;1.50;83.60;;;;;;6240015;28;20237;-80
2023/12/09 02:27:05;;;;;;;55.87;34.00;;;1.40;83.70;;;;;;6235444;28;20241;-80
2023/12/09 02:30:16;;;;;;;53.93;32.63;;;1.40;83.90;;;;;;6229162;28;20863;-81
2023/12/09 02:33:21;;;;;;;49.83;32.17;;;1.50;83.90;;;;;;6257263;28;20252;-80
2023/12/09 02:36:26;;;;;;;47.57;32.17;;;1.50;83.50;;;;;;6247035;28;20233;-80
2023/12/09 02:39:31;;;;;;;51.43;32.27;;;1.50;83.50;;;;;;6247466;28;20235;-81
2023/12/09 02:42:35;;;;;;;49.53;30.37;;;1.50;83.70;;;;;;6236333;28;20231;-81
2023/12/09 02:45:38;;;;;;;47.60;31.43;;;1.50;83.70;;;;;;6242777;28;20348;-82
2023/12/09 02:48:41;;;;;;;52.37;32.43;;;1.50;83.80;;;;;;6236137;28;20233;-82
2023/12/09 02:51:45;;;;;;;46.97;29.73;;;1.50;83.90;;;;;;6243919;28;20327;-78
2023/12/09 02:54:49;;;;;;;49.53;31.97;;;1.60;83.70;;;;;;6249981;28;20238;-79
2023/12/09 02:57:52;;;;;;;47.00;31.10;;;1.50;83.80;;;;;;6243218;28;20230;-81
2023/12/09 03:00:55;;;;;;;50.97;32.77;;;1.50;84.00;;;;;;6250387;28;20621;-81
2023/12/09 03:03:58;;;;;;;56.90;33.90;;;1.60;84.00;;;;;;6243816;28;20736;-79
2023/12/09 03:07:01;;;;;;;51.57;32.10;;;1.60;83.70;;;;;;6248971;28;20233;-81
2023/12/09 03:10:07;;;;;;;49.73;32.37;;;1.50;84.00;;;;;;6242976;28;20245;-78
2023/12/09 03:13:10;;;;;;;51.43;33.93;;;1.60;83.80;;;;;;6243251;28;20245;-79
2023/12/09 03:16:13;;;;;;;52.83;33.87;;;1.60;83.80;;;;;;6235266;28;20250;-82
2023/12/09 03:19:16;;;;;;;46.60;32.23;;;1.60;83.80;;;;;;6241461;28;20813;-80
2023/12/09 03:22:20;;;;;;;54.83;34.40;;;1.60;84.10;;;;;;6241203;28;20847;-81
2023/12/09 03:25:24;;;;;;;55.77;31.93;;;1.60;84.00;;;;;;6258296;28;20237;-82
2023/12/09 03:28:27;;;;;;;58.30;34.60;;;1.60;84.10;;;;;;6241552;28;20278;-82
2023/12/09 03:31:30;;;;;;;55.33;32.40;;;1.60;84.10;;;;;;6253779;28;20317;-80
2023/12/09 03:34:33;;;;;;;55.97;32.83;;;1.60;84.00;;;;;;6251663;28;20234;-77
2023/12/09 03:37:36;;;;;;;57.97;33.30;;;1.70;83.90;;;;;;6247678;28;20227;-83
2023/12/09 03:40:41;;;;;;;60.87;34.60;;;1.70;83.40;;;;;;6246774;28;20264;-81
2023/12/09 03:43:44;;;;;;;58.23;34.27;;;1.70;83.60;;;;;;6264196;28;20254;-81
2023/12/09 03:46:47;;;;;;;61.80;33.33;;;1.70;83.90;;;;;;6248160;28;20249;-80
2023/12/09 03:49:50;;;;;;;61.60;33.40;;;1.70;83.90;;;;;;6239909;28;20242;-81
2023/12/09 03:52:53;;;;;;;61.83;34.47;;;1.60;84.10;;;;;;6243221;28;20234;-80
2023/12/09 03:55:58;;;;;;;66.67;35.53;;;1.60;84.30;;;;;;6255142;28;20380;-81
2023/12/09 03:59:01;;;;;;;61.90;34.83;;;1.60;84.50;;;;;;6244106;28;20657;-79
2023/12/09 04:02:04;;;;;;;68.57;35.70;;;1.50;84.70;;;;;;6234109;28;20249;-81
2023/12/09 04:05:08;;;;;;;69.10;35.87;;;1.60;84.90;;;;;;6232883;28;20239;-81
2023/12/09 04:08:12;;;;;;;74.43;36.47;;;1.50;85.00;;;;;;6249251;28;20230;-82
2023/12/09 04:11:16;;;;;;;76.90;37.83;;;1.50;85.20;;;;;;6244096;28;20277;-80
2023/12/09 04:14:19;;;;;;;75.50;39.07;;;1.40;85.50;;;;;;6251218;28;20331;-81
2023/12/09 04:17:22;;;;;;;91.90;38.73;;;1.50;85.60;;;;;;6236092;28;20306;-78
2023/12/09 04:20:25;;;;;;;78.67;39.30;;;1.50;85.90;;;;;;6255827;28;20249;-81
2023/12/09 04:23:29;;;;;;;75.70;37.80;;;1.50;85.80;;;;;;6243022;28;20329;-81
2023/12/09 04:26:33;;;;;;;83.13;37.17;;;1.50;85.90;;;;;;6263442;28;20238;-80
2023/12/09 04:29:36;;;;;;;85.57;38.40;;;1.50;86.00;;;;;;6244872;28;20320;-80
2023/12/09 04:32:40;;;;;;;97.73;41.03;;;1.50;86.10;;;;;;6247834;28;20322;-82
2023/12/09 04:35:43;;;;;;;82.10;39.47;;;1.50;86.20;;;;;;6249391;28;20230;-81
2023/12/09 04:38:46;;;;;;;79.50;38.30;;;1.50;86.20;;;;;;6257245;28;20775;-81
2023/12/09 04:41:51;;;;;;;95.83;41.60;;;1.60;86.20;;;;;;6256551;28;20249;-80
2023/12/09 04:44:54;;;;;;;104.97;42.07;;;1.60;86.20;;;;;;6247849;28;20256;-80
2023/12/09 04:47:57;;;;;;;87.47;39.03;;;1.60;86.30;;;;;;6257983;28;20254;-80
2023/12/09 04:51:00;;;;;;;86.93;38.90;;;1.60;86.40;;;;;;6248525;28;20237;-81
2023/12/09 04:54:03;;;;;;;99.47;42.13;;;1.60;86.30;;;;;;6240774;28;20231;-80
2023/12/09 04:57:08;;;;;;;99.50;42.40;;;1.60;86.40;;;;;;6244248;28;20255;-81
2023/12/09 05:00:12;;;;;;;97.77;40.37;;;1.60;86.50;;;;;;6250357;28;20277;-82
2023/12/09 05:03:18;;;;;;;97.73;42.77;;;1.60;86.50;;;;;;6248723;28;20572;-81
2023/12/09 05:06:21;;;;;;;101.47;42.40;;;1.60;86.40;;;;;;6246068;28;20250;-82
2023/12/09 05:09:24;;;;;;;108.70;42.73;;;1.70;86.50;;;;;;6235440;28;20261;-80
2023/12/09 05:12:29;;;;;;;94.43;41.87;;;1.70;86.40;;;;;;6248854;28;20817;-81
2023/12/09 05:15:32;;;;;;;103.27;41.40;;;1.70;86.60;;;;;;6246299;28;20242;-82
2023/12/09 05:18:36;;;;;;;113.77;46.23;;;1.70;86.60;;;;;;6248884;28;20318;-82
2023/12/09 05:21:39;;;;;;;117.37;44.93;;;1.70;86.60;;;;;;6244551;28;20227;-80
2023/12/09 05:24:42;;;;;;;107.10;45.07;;;1.70;86.80;;;;;;6225784;28;20715;-80
2023/12/09 05:27:49;;;;;;;115.70;45.03;;;1.70;86.90;;;;;;6257884;28;20233;-81
2023/12/09 05:30:53;;;;;;;102.00;43.10;;;1.70;86.80;;;;;;6230348;28;20232;-81
2023/12/09 05:33:56;;;;;;;109.97;43.90;;;1.80;86.80;;;;;;6222224;28;20331;-81
2023/12/09 05:36:59;;;;;;;108.03;43.87;;;1.80;86.80;;;;;;6226325;28;20419;-80
2023/12/09 05:40:03;;;;;;;107.60;41.73;;;1.70;86.70;;;;;;6222328;28;20360;-82
2023/12/09 05:43:09;;;;;;;96.57;42.93;;;1.80;86.80;;;;;;6227219;28;20241;-78
2023/12/09 05:46:19;;;;;;;92.80;39.23;;;1.80;86.80;;;;;;6216894;28;20739;-81
2023/12/09 05:49:22;;;;;;;108.23;45.13;;;1.80;86.90;;;;;;6225022;28;21010;-81
2023/12/09 05:52:25;;;;;;;93.70;40.80;;;1.90;86.90;;;;;;6216709;28;20235;-80
2023/12/09 05:55:29;;;;;;;97.43;42.33;;;1.90;86.90;;;;;;6239328;28;20312;-77
2023/12/09 05:58:33;;;;;;;87.37;39.60;;;1.90;86.90;;;;;;6231968;28;20258;-82
2023/12/09 06:01:36;;;;;;;90.27;40.93;;;2.00;86.90;;;;;;6224983;28;20243;-83
2023/12/09 06:04:40;;;;;;;87.57;41.97;;;2.00;86.90;;;;;;6220247;28;20429;-82
2023/12/09 06:07:43;;;;;;;81.97;41.90;;;2.00;86.80;;;;;;6218588;28;21226;-81
2023/12/09 06:10:46;;;;;;;66.40;36.73;;;2.10;86.80;;;;;;6218066;28;20231;-84
2023/12/09 06:13:50;;;;;;;86.67;41.30;;;2.10;86.80;;;;;;6217833;28;20728;-81
2023/12/09 06:16:53;;;;;;;78.63;39.93;;;2.10;86.70;;;;;;6231718;28;20789;-81
2023/12/09 06:19:56;;;;;;;74.90;39.23;;;2.20;86.80;;;;;;6225445;28;20254;-81
2023/12/09 06:23:00;;;;;;;77.80;39.97;;;2.20;86.50;;;;;;6232144;28;20292;-82
2023/12/09 06:26:04;;;;;;;81.67;39.13;;;2.20;86.30;;;;;;6242317;28;20512;-82
2023/12/09 06:29:08;;;;;;;75.73;39.87;;;2.20;86.40;;;;;;6230061;28;20853;-81
2023/12/09 06:32:11;;;;;;;79.60;41.33;;;2.30;86.10;;;;;;6234920;28;20246;-83
2023/12/09 06:35:15;;;;;;;84.80;38.37;;;2.30;86.10;;;;;;6231799;28;20293;-82
2023/12/09 06:38:18;;;;;;;74.17;38.67;;;2.30;86.10;;;;;;6235993;28;20245;-82
2023/12/09 06:41:21;;;;;;;85.10;40.23;;;2.40;85.90;;;;;;6219609;28;20242;-82
2023/12/09 06:44:25;;;;;;;78.77;37.67;;;2.30;85.80;;;;;;6227257;28;20332;-82
2023/12/09 06:47:28;;;;;;;72.17;37.90;;;2.40;85.90;;;;;;6234317;28;20324;-82
2023/12/09 06:50:31;;;;;;;79.47;38.27;;;2.40;85.90;;;;;;6219981;28;20257;-82
2023/12/09 06:53:38;;;;;;;59.87;34.63;;;2.40;85.80;;;;;;6222779;28;20334;-81
2023/12/09 06:56:42;;;;;;;76.53;37.87;;;2.40;85.90;;;;;;6221403;28;20313;-84
2023/12/09 06:59:46;;;;;;;70.43;37.83;;;2.40;85.80;;;;;;6236346;28;20301;-82
2023/12/09 07:02:49;;;;;;;72.47;37.37;;;2.40;86.00;;;;;;6225507;28;20321;-82
2023/12/09 07:06:01;;;;;;;55.10;33.50;;;2.40;85.90;;;;;;6222884;28;20461;-83
2023/12/09 07:09:04;;;;;;;69.63;38.73;;;2.50;85.90;;;;;;6223619;28;20223;-83
2023/12/09 07:12:08;;;;;;;66.60;35.27;;;2.50;85.90;;;;;;6228488;28;20234;-83
2023/12/09 07:15:13;;;;;;;63.87;36.70;;;2.50;85.80;;;;;;6220157;28;20236;-82
2023/12/09 07:18:16;;;;;;;66.60;34.97;;;2.50;85.80;;;;;;6222875;28;20235;-83
2023/12/09 07:21:22;;;;;;;60.73;34.40;;;2.50;85.60;;;;;;6220835;28;20287;-81
2023/12/09 07:24:25;;;;;;;55.97;32.90;;;2.50;85.50;;;;;;6225780;28;20241;-81
2023/12/09 07:27:28;;;;;;;68.27;37.33;;;2.50;85.70;;;;;;6228787;28;20235;-81
2023/12/09 07:30:35;;;;;;;60.53;34.07;;;2.50;85.50;;;;;;6217305;28;20744;-83
2023/12/09 07:33:38;;;;;;;57.67;33.70;;;2.50;85.50;;;;;;6219991;28;20242;-80
2023/12/09 07:36:41;;;;;;;61.90;34.70;;;2.50;85.50;;;;;;6222603;28;20296;-82
2023/12/09 07:39:45;;;;;;;60.37;34.73;;;2.50;85.40;;;;;;6218592;28;20238;-82
2023/12/09 07:42:48;;;;;;;64.87;35.17;;;2.50;85.70;;;;;;6227146;28;20614;-84
2023/12/09 07:45:52;;;;;;;60.30;35.87;;;2.50;85.80;;;;;;6233384;28;20339;-81
2023/12/09 07:48:56;;;;;;;56.87;34.07;;;2.50;85.90;;;;;;6222377;28;20724;-85
2023/12/09 07:51:59;;;;;;;57.10;31.87;;;2.50;85.70;;;;;;6214612;28;20235;-85
2023/12/09 07:55:03;;;;;;;54.63;34.00;;;2.60;85.40;;;;;;6223708;28;20243;-83
2023/12/09 07:58:06;;;;;;;47.13;31.60;;;2.50;85.50;;;;;;6227456;28;20227;-83
2023/12/09 08:01:11;;;;;;;62.70;34.10;;;2.70;85.50;;;;;;6225409;28;20536;-83
2023/12/09 08:04:14;;;;;;;52.60;31.53;;;2.70;85.40;;;;;;6220044;28;20246;-81
2023/12/09 08:07:18;;;;;;;45.73;30.70;;;2.60;85.30;;;;;;6223509;28;20239;-83
2023/12/09 08:10:21;;;;;;;53.20;30.60;;;2.70;85.40;;;;;;6235519;28;20243;-86
2023/12/09 08:13:24;;;;;;;45.23;29.97;;;2.70;85.20;;;;;;6227096;28;20282;-83
2023/12/09 08:16:29;;;;;;;46.73;30.13;;;2.70;85.30;;;;;;6234680;28;20247;-82
2023/12/09 08:19:32;;;;;;;43.53;30.20;;;2.70;85.20;;;;;;6226896;28;20239;-85
2023/12/09 08:22:36;;;;;;;46.70;30.10;;;2.80;85.20;;;;;;6227128;28;20223;-84
2023/12/09 08:25:43;;;;;;;41.67;28.10;;;3.00;85.10;;;;;;6220873;28;20251;-84
2023/12/09 08:28:46;;;;;;;41.60;29.30;;;2.90;84.80;;;;;;6230274;28;20239;-86
2023/12/09 08:31:53;;;;;;;43.37;28.73;;;2.90;84.80;;;;;;6235241;28;20239;-83
2023/12/09 08:34:56;;;;;;;43.13;28.70;;;3.00;84.90;;;;;;6207119;28;20243;-87
2023/12/09 08:38:11;;;;;;;39.63;28.80;;;2.90;84.80;;;;;;6223368;28;20232;-86
2023/12/09 08:41:14;;;;;;;41.63;27.30;;;3.00;84.70;;;;;;6226547;28;20263;-82
2023/12/09 08:44:18;;;;;;;37.07;28.47;;;3.00;84.70;;;;;;6229318;28;20245;-84
2023/12/09 08:47:22;;;;;;;37.57;27.63;;;3.00;84.70;;;;;;6229086;28;20247;-85
2023/12/09 08:50:26;;;;;;;41.60;27.33;;;3.00;84.80;;;;;;6233433;28;20321;-84
2023/12/09 08:53:29;;;;;;;39.83;26.67;;;3.10;84.70;;;;;;6244391;28;24647;-79
2023/12/09 08:56:32;;;;;;;37.83;28.07;;;3.10;84.30;;;;;;6246562;28;20240;-83
2023/12/09 08:59:36;;;;;;;39.63;26.47;;;3.10;84.50;;;;;;6237125;28;20235;-83
2023/12/09 09:02:40;;;;;;;35.67;26.30;;;3.10;84.10;;;;;;6248426;28;20250;-79
2023/12/09 09:05:44;;;;;;;41.20;26.40;;;3.30;84.20;;;;;;6253520;28;20352;-80
2023/12/09 09:08:47;;;;;;;32.37;24.53;;;3.30;84.10;;;;;;6253676;28;20333;-82
2023/12/09 09:11:51;;;;;;;34.77;24.77;;;3.50;83.70;;;;;;6244189;28;20602;-80
2023/12/09 09:14:56;;;;;;;34.13;25.37;;;3.50;83.40;;;;;;6227313;28;20234;-83
2023/12/09 09:18:03;;;;;;;30.00;24.47;;;3.50;83.20;;;;;;6224416;28;20250;-84
2023/12/09 09:21:07;;;;;;;31.83;23.97;;;3.50;83.00;;;;;;6241816;28;20235;-85
2023/12/09 09:24:10;;;;;;;31.67;24.63;;;3.50;82.90;;;;;;6249692;28;20233;-84
2023/12/09 09:27:13;;;;;;;35.23;25.10;;;3.50;83.00;;;;;;6246996;28;20245;-82
2023/12/09 09:30:19;;;;;;;34.43;25.40;;;3.40;83.40;;;;;;6227635;28;20300;-82
2023/12/09 09:33:24;;;;;;;37.20;26.17;;;3.50;83.70;;;;;;6231831;28;20240;-87
2023/12/09 09:36:32;;;;;;;33.20;24.93;;;3.50;83.90;;;;;;6230218;28;20238;-82
2023/12/09 09:39:36;;;;;;;34.67;25.23;;;3.50;83.70;;;;;;6230763;28;20235;-84
2023/12/09 09:42:48;;;;;;;37.00;25.97;;;3.50;83.40;;;;;;6240210;28;20234;-85
2023/12/09 09:45:56;;;;;;;35.07;26.10;;;3.50;83.40;;;;;;6223480;28;20314;-84
2023/12/09 09:49:03;;;;;;;41.13;27.97;;;3.60;83.40;;;;;;6235496;28;20269;-86
2023/12/09 09:52:10;;;;;;;32.20;24.10;;;3.60;83.30;;;;;;6226070;28;20259;-84
2023/12/09 09:55:15;;;;;;;32.20;23.83;;;3.50;83.40;;;;;;6231942;28;20561;-85
2023/12/09 09:58:19;;;;;;;30.33;21.83;;;3.60;83.30;;;;;;6241381;28;20235;-82
2023/12/09 10:01:24;;;;;;;33.10;24.37;;;3.60;83.50;;;;;;6233090;28;20246;-82
2023/12/09 10:04:29;;;;;;;32.13;23.83;;;3.60;83.40;;;;;;6248087;28;20242;-82
2023/12/09 10:07:32;;;;;;;31.70;24.23;;;3.60;83.20;;;;;;6244375;28;20479;-85
2023/12/09 10:10:42;;;;;;;31.60;23.47;;;3.60;83.20;;;;;;6233981;28;20239;-82
2023/12/09 10:13:45;;;;;;;32.80;23.43;;;3.70;83.20;;;;;;6235892;28;20251;-80
2023/12/09 10:16:48;;;;;;;33.43;24.23;;;3.70;83.00;;;;;;6235285;28;20259;-81
2023/12/09 10:19:55;;;;;;;31.83;22.73;;;3.70;83.20;;;;;;6221858;28;20247;-82
2023/12/09 10:23:01;;;;;;;26.57;21.57;;;3.70;83.00;;;;;;6210605;28;20235;-82
2023/12/09 10:26:04;;;;;;;30.50;22.07;;;3.70;83.20;;;;;;6221286;28;20886;-84
2023/12/09 10:29:07;;;;;;;28.07;21.30;;;3.80;83.20;;;;;;6224194;28;20322;-85
2023/12/09 10:32:12;;;;;;;24.70;21.70;;;3.90;83.00;;;;;;6225008;28;20234;-83
2023/12/09 10:35:16;;;;;;;29.53;22.90;;;3.90;83.00;;;;;;6225466;28;20759;-84
2023/12/09 10:38:19;;;;;;;30.93;22.57;;;3.90;83.00;;;;;;6230369;28;20755;-85
2023/12/09 10:41:25;;;;;;;28.77;22.43;;;3.90;82.80;;;;;;6224731;28;20242;-82
2023/12/09 10:44:28;;;;;;;26.27;22.53;;;4.00;82.90;;;;;;6221622;28;20257;-88
2023/12/09 10:47:31;;;;;;;30.03;22.67;;;4.00;82.60;;;;;;6234433;28;20896;-83
2023/12/09 10:50:37;;;;;;;27.47;21.97;;;4.00;82.30;;;;;;6239277;28;20729;-84
2023/12/09 10:53:42;;;;;;;26.27;20.73;;;4.00;82.40;;;;;;6209571;28;20346;-83
2023/12/09 10:56:45;;;;;;;28.13;22.03;;;4.00;82.40;;;;;;6224892;28;20331;-87
2023/12/09 10:59:48;;;;;;;30.77;22.87;;;3.90;82.60;;;;;;6260741;28;20273;-83
2023/12/09 11:02:56;;;;;;;25.10;20.60;;;3.90;83.00;;;;;;6232373;28;20324;-86
2023/12/09 11:06:02;;;;;;;25.10;21.10;;;3.90;83.10;;;;;;6215091;28;20591;-85
2023/12/09 11:09:07;;;;;;;26.30;20.00;;;4.00;83.00;;;;;;6222038;28;20241;-85
2023/12/09 11:12:11;;;;;;;28.10;21.40;;;4.10;82.70;;;;;;6210883;28;20863;-84
2023/12/09 11:15:28;;;;;;;28.83;19.87;;;4.00;82.70;;;;;;6230483;28;20246;-84
2023/12/09 11:18:32;;;;;;;24.70;19.07;;;4.00;82.70;;;;;;6217486;28;20254;-85
2023/12/09 11:21:37;;;;;;;24.73;19.43;;;4.20;82.30;;;;;;6215614;28;20235;-85
2023/12/09 11:24:45;;;;;;;22.40;18.67;;;4.20;82.00;;;;;;6217299;28;20331;-84
2023/12/09 11:27:50;;;;;;;23.70;17.87;;;4.20;82.30;;;;;;6220824;28;20333;-82
2023/12/09 11:30:57;;;;;;;21.07;17.60;;;4.30;82.20;;;;;;6215793;28;20254;-83
2023/12/09 11:34:01;;;;;;;26.37;18.33;;;4.40;81.80;;;;;;6212863;28;20275;-84
2023/12/09 11:37:08;;;;;;;24.03;17.97;;;4.50;81.30;;;;;;6213062;28;20231;-82
2023/12/09 11:40:13;;;;;;;24.27;17.20;;;4.50;81.20;;;;;;6217050;28;20347;-80
2023/12/09 11:43:17;;;;;;;26.43;18.03;;;4.50;81.20;;;;;;6218562;28;20321;-83
2023/12/09 11:46:21;;;;;;;22.50;17.67;;;4.70;80.90;;;;;;6231787;28;20235;-82
2023/12/09 11:49:26;;;;;;;21.10;17.10;;;4.70;81.00;;;;;;6220887;28;20314;-83
2023/12/09 11:52:31;;;;;;;22.10;16.23;;;4.70;80.90;;;;;;6223575;28;20276;-82
2023/12/09 11:55:34;;;;;;;23.80;16.53;;;4.70;80.70;;;;;;6227551;28;20271;-81
2023/12/09 11:58:37;;;;;;;17.37;15.27;;;4.90;80.10;;;;;;6227797;28;20636;-83
2023/12/09 12:01:42;;;;;;;18.97;15.30;;;5.00;80.00;;;;;;6232850;28;20295;-82
2023/12/09 12:04:45;;;;;;;22.63;17.10;;;4.90;80.00;;;;;;6231066;28;20239;-83
2023/12/09 12:07:49;;;;;;;20.07;15.47;;;4.90;80.10;;;;;;6223340;28;20318;-85
2023/12/09 12:10:53;;;;;;;17.97;15.53;;;5.00;80.10;;;;;;6224853;28;20294;-84
2023/12/09 12:13:56;;;;;;;21.83;16.87;;;5.00;79.90;;;;;;6222851;28;20705;-83
2023/12/09 12:16:59;;;;;;;16.93;14.60;;;5.00;80.10;;;;;;6236042;28;20355;-85
2023/12/09 12:20:05;;;;;;;20.13;16.07;;;5.00;80.00;;;;;;6224235;28;20241;-82
2023/12/09 12:23:12;;;;;;;20.17;17.00;;;5.00;79.80;;;;;;6229856;28;20250;-83
2023/12/09 12:26:28;;;;;;;20.07;17.10;;;5.00;80.00;;;;;;6235377;28;20232;-82
2023/12/09 12:29:31;;;;;;;19.13;16.43;;;5.00;80.40;;;;;;6234845;28;20281;-83
2023/12/09 12:32:37;;;;;;;20.73;16.20;;;5.00;80.10;;;;;;6225789;28;20324;-82
2023/12/09 12:35:41;;;;;;;18.67;15.87;;;5.00;80.10;;;;;;6226796;28;20246;-82
2023/12/09 12:38:46;;;;;;;19.93;15.87;;;5.00;80.30;;;;;;6222308;28;20320;-83
2023/12/09 12:41:50;;;;;;;19.57;16.13;;;5.00;80.20;;;;;;6229730;28;20235;-83
2023/12/09 12:44:53;;;;;;;24.50;17.87;;;5.10;80.00;;;;;;6221094;28;20328;-83
2023/12/09 12:47:57;;;;;;;21.73;17.10;;;5.20;80.00;;;;;;6258856;28;20632;-83
2023/12/09 12:51:00;;;;;;;25.37;18.40;;;5.30;79.60;;;;;;6232471;28;20409;-86
2023/12/09 12:54:05;;;;;;;24.83;18.27;;;5.30;79.50;;;;;;6245092;28;20235;-76
2023/12/09 12:57:09;;;;;;;24.00;16.73;;;5.10;79.60;;;;;;6245801;28;20234;-78
2023/12/09 13:00:14;;;;;;;18.70;15.10;;;5.10;79.70;;;;;;6243462;28;20234;-83
2023/12/09 13:03:18;;;;;;;16.93;14.93;;;5.10;80.10;;;;;;6244601;28;20246;-81
2023/12/09 13:06:22;;;;;;;14.20;12.73;;;5.10;80.10;;;;;;6260312;28;20239;-83
2023/12/09 13:09:27;;;;;;;14.00;12.60;;;5.00;80.30;;;;;;6248088;28;20647;-82
2023/12/09 13:12:31;;;;;;;14.60;12.97;;;5.00;80.50;;;;;;6245530;28;20289;-81
2023/12/09 13:15:34;;;;;;;17.77;13.63;;;5.20;80.50;;;;;;6252560;28;20252;-83
2023/12/09 13:18:37;;;;;;;16.17;13.70;;;5.30;80.30;;;;;;6248002;28;20856;-83
2023/12/09 13:21:41;;;;;;;16.47;13.13;;;5.30;80.00;;;;;;6242677;28;20257;-84
2023/12/09 13:24:46;;;;;;;18.77;13.77;;;5.50;80.00;;;;;;6242614;28;20234;-83
2023/12/09 13:27:49;;;;;;;17.73;13.87;;;5.50;79.80;;;;;;6251005;28;20288;-83
2023/12/09 13:30:53;;;;;;;14.53;13.10;;;5.50;80.00;;;;;;6254804;28;20260;-85
2023/12/09 13:37:57;;;;;;;13.37;12.03;;;5.80;79.60;;;;;;6174469;28;20230;-81
2023/12/09 13:41:07;;;;;;;16.50;12.60;;;5.90;79.10;;;;;;6248917;28;20227;-83
2023/12/09 13:44:13;;;;;;;15.57;13.50;;;5.90;78.50;;;;;;6250366;28;20235;-80
2023/12/09 13:47:18;;;;;;;15.87;13.17;;;5.80;78.20;;;;;;6248493;28;20246;-83
2023/12/09 13:50:21;;;;;;;16.83;14.47;;;5.70;78.50;;;;;;6243525;28;20249;-84
2023/12/09 13:53:25;;;;;;;17.33;14.70;;;5.50;78.90;;;;;;6252658;28;20242;-84
2023/12/09 13:56:30;;;;;;;17.07;14.50;;;5.30;79.50;;;;;;6245180;28;20226;-83
2023/12/09 13:59:33;;;;;;;16.83;13.50;;;5.20;79.90;;;;;;6252120;28;20262;-82
2023/12/09 14:02:36;;;;;;;17.47;14.17;;;5.10;80.00;;;;;;6248269;28;20264;-82
2023/12/09 14:05:43;;;;;;;16.63;13.70;;;5.00;80.10;;;;;;6253789;28;20242;-81
2023/12/09 14:08:46;;;;;;;15.13;13.07;;;5.00;80.30;;;;;;6244716;28;20237;-83
2023/12/09 14:11:51;;;;;;;16.43;14.80;;;5.00;80.50;;;;;;6256780;28;20307;-82
2023/12/09 14:14:54;;;;;;;17.47;15.43;;;4.90;80.80;;;;;;6244272;28;20288;-81
2023/12/09 14:18:01;;;;;;;22.73;17.83;;;4.90;81.00;;;;;;6242092;28;20246;-81
2023/12/09 14:21:05;;;;;;;17.43;15.53;;;4.90;81.30;;;;;;6256693;28;20236;-83
2023/12/09 14:24:08;;;;;;;17.83;15.90;;;4.70;81.60;;;;;;6247109;28;20246;-79
2023/12/09 14:27:14;;;;;;;18.63;16.10;;;4.70;81.70;;;;;;6246292;28;20337;-81
2023/12/09 14:30:17;;;;;;;14.77;13.37;;;4.60;81.70;;;;;;6241523;28;20241;-82
2023/12/09 14:33:20;;;;;;;17.47;15.63;;;4.50;82.00;;;;;;6251919;28;20249;-81
2023/12/09 14:36:24;;;;;;;14.47;12.93;;;4.50;81.80;;;;;;6253809;28;20887;-84
2023/12/09 14:39:27;;;;;;;16.53;14.67;;;4.50;81.80;;;;;;6244567;28;20848;-82
2023/12/09 14:42:32;;;;;;;18.20;15.27;;;4.40;82.30;;;;;;6255158;28;20320;-83
2023/12/09 14:45:36;;;;;;;16.83;14.40;;;4.30;83.10;;;;;;6258228;28;20238;-83
2023/12/09 14:48:39;;;;;;;15.00;13.17;;;4.20;83.20;;;;;;6255347;28;20238;-82
2023/12/09 14:51:44;;;;;;;17.60;15.40;;;4.20;83.00;;;;;;6239789;28;20230;-80
2023/12/09 14:54:48;;;;;;;17.30;14.73;;;4.20;83.50;;;;;;6242153;28;20250;-84
2023/12/09 14:57:53;;;;;;;17.40;14.80;;;4.20;83.20;;;;;;6243322;28;20240;-81
2023/12/09 15:00:56;;;;;;;14.90;13.20;;;4.10;83.00;;;;;;6250246;28;20723;-84
2023/12/09 15:04:01;;;;;;;19.23;14.47;;;4.10;83.00;;;;;;6236085;28;20794;-82
2023/12/09 15:07:06;;;;;;;17.80;16.00;;;4.00;83.30;;;;;;6250514;28;20861;-84
2023/12/09 15:10:10;;;;;;;20.97;15.70;;;3.90;83.70;;;;;;6252556;28;20809;-82
2023/12/09 15:13:16;;;;;;;15.73;14.10;;;3.90;83.70;;;;;;6242207;28;20249;-84
2023/12/09 15:16:19;;;;;;;18.37;15.73;;;3.90;83.90;;;;;;6242527;28;20610;-82
2023/12/09 15:19:24;;;;;;;21.50;15.97;;;3.90;84.10;;;;;;6242094;28;20420;-80
2023/12/09 15:22:29;;;;;;;19.80;15.00;;;3.90;84.00;;;;;;6246024;28;20241;-83
2023/12/09 15:25:33;;;;;;;18.63;15.43;;;3.90;84.10;;;;;;6243333;28;20238;-83
2023/12/09 15:28:38;;;;;;;18.30;15.33;;;3.80;84.00;;;;;;6234648;28;20303;-84
2023/12/09 15:31:41;;;;;;;18.77;16.53;;;3.70;83.90;;;;;;6247939;28;20333;-83
2023/12/09 15:34:44;;;;;;;19.30;14.53;;;3.70;84.60;;;;;;6247090;28;21388;-80
2023/12/09 15:37:50;;;;;;;21.73;15.93;;;3.60;84.90;;;;;;6238094;28;20364;-82
2023/12/09 15:40:53;;;;;;;19.03;15.27;;;3.60;85.00;;;;;;6248926;28;20230;-83
2023/12/09 15:43:58;;;;;;;19.97;17.00;;;3.60;84.90;;;;;;6240675;28;21001;-83
2023/12/09 15:47:01;;;;;;;18.87;16.83;;;3.60;85.10;;;;;;6248072;28;20242;-85
2023/12/09 15:50:06;;;;;;;21.40;17.60;;;3.50;85.00;;;;;;6248988;28;20896;-83